Time;durP1;ratioP1;P1;durP2;ratioP2;P2;SDS_P1;SDS_P2;PMS_P1;PMS_P2;Temp;Humidity;BMP_temperature;BMP_pressure;BME280_temperature;BME280_humidity;BME280_pressure;Samples;Min_cycle;Max_cycle;Signal;HPM_P1;HPM_P2
2022/06/24 05:56:00;;;;;;;14.57;7.20;;;;;;;;;;6148646;23;20020;-82
2022/06/24 05:58:27;;;;;;;12.32;6.18;;;;;;;;;;6217738;23;20024;-86
2022/06/24 06:00:54;;;;;;;12.00;5.72;;;;;;;;;;6190924;23;20008;-85
2022/06/24 06:03:21;;;;;;;11.45;6.65;;;;;;;;;;6215920;23;20009;-85
2022/06/24 06:05:46;;;;;;;11.25;6.60;;;;;;;;;;6217393;23;20039;-86
2022/06/24 06:08:12;;;;;;;14.23;6.68;;;;;;;;;;6217890;23;20004;-85
2022/06/24 11:03:03;;;;;;;11.75;4.15;;;;;;;;;;6164339;23;20020;-82
2022/06/24 11:05:40;;;;;;;14.43;4.32;;;;;;;;;;6218015;23;20112;-85
2022/06/24 11:08:19;;;;;;;12.35;3.30;;;;;;;;;;6217745;23;20004;-86
2022/06/24 11:10:47;;;;;;;12.50;4.10;;;;;;;;;;6160759;23;20009;-86
2022/06/24 11:13:13;;;;;;;11.95;3.90;;;;;;;;;;6160825;23;20435;-83
2022/06/24 11:15:41;;;;;;;14.77;4.43;;;;;;;;;;6187193;23;20033;-84
2022/06/24 11:18:17;;;;;;;14.98;4.70;;;;;;;;;;6160593;23;20009;-85
2022/06/24 11:20:49;;;;;;;12.38;4.50;;;;;;;;;;6187225;23;20369;-85
2022/06/24 11:23:17;;;;;;;16.65;4.22;;;;;;;;;;6186894;23;20039;-84
2022/06/24 11:26:10;;;;;;;14.75;4.70;;;;;;;;;;6160395;23;20009;-83
2022/06/24 11:28:38;;;;;;;11.77;4.65;;;;;;;;;;6148442;23;20009;-82
2022/06/24 11:31:20;;;;;;;12.77;4.90;;;;;;;;;;6187282;23;20031;-85
2022/06/24 11:33:47;;;;;;;12.02;4.95;;;;;;;;;;6187530;23;20005;-86
2022/06/24 11:36:14;;;;;;;11.10;4.05;;;;;;;;;;6187032;23;20432;-83
2022/06/24 11:39:22;;;;;;;14.80;4.40;;;;;;;;;;6186645;23;20043;-84
2022/06/24 11:41:48;;;;;;;18.00;4.00;;;;;;;;;;6155166;23;20013;-83
2022/06/24 11:44:14;;;;;;;12.85;3.80;;;;;;;;;;6187073;23;20320;-83
2022/06/24 11:46:39;;;;;;;12.50;3.90;;;;;;;;;;6185716;23;20005;-85
2022/06/24 11:49:07;;;;;;;13.48;3.90;;;;;;;;;;6185830;23;20043;-86
2022/06/24 11:51:33;;;;;;;11.88;3.67;;;;;;;;;;6187251;23;20357;-84
2022/06/24 11:54:00;;;;;;;13.88;3.95;;;;;;;;;;6187340;23;20004;-86
2022/06/24 11:56:28;;;;;;;12.85;3.92;;;;;;;;;;6186694;23;20011;-84
2022/06/24 11:58:55;;;;;;;11.18;4.20;;;;;;;;;;6186658;23;20001;-84
2022/06/24 12:01:23;;;;;;;8.95;4.07;;;;;;;;;;6160179;23;20001;-83
2022/06/24 12:03:50;;;;;;;14.52;4.50;;;;;;;;;;6186139;23;20023;-85
2022/06/24 12:06:17;;;;;;;13.02;4.00;;;;;;;;;;6186126;23;20001;-80
2022/06/24 12:08:42;;;;;;;15.68;4.53;;;;;;;;;;6186290;23;20005;-86
2022/06/24 12:11:19;;;;;;;13.07;3.47;;;;;;;;;;6186368;23;20005;-84
2022/06/24 12:14:04;;;;;;;16.13;4.35;;;;;;;;;;6186128;23;20004;-87
2022/06/24 12:16:54;;;;;;;11.77;3.92;;;;;;;;;;6186436;23;20033;-83
2022/06/24 12:19:20;;;;;;;16.73;3.97;;;;;;;;;;6184961;23;20107;-88
2022/06/24 12:21:46;;;;;;;12.50;3.83;;;;;;;;;;6186606;23;20024;-89
2022/06/24 12:24:22;;;;;;;9.82;3.47;;;;;;;;;;6187166;23;20444;-87
2022/06/24 12:26:50;;;;;;;9.50;3.50;;;;;;;;;;6186276;23;20076;-85
2022/06/24 12:29:24;;;;;;;13.35;3.80;;;;;;;;;;6186425;23;20068;-86
2022/06/24 12:31:50;;;;;;;11.70;3.80;;;;;;;;;;6185850;23;20009;-86
2022/06/24 12:34:32;;;;;;;12.25;3.65;;;;;;;;;;6185705;23;20032;-88
2022/06/24 12:37:10;;;;;;;14.57;3.63;;;;;;;;;;6186959;23;20029;-88
2022/06/24 12:39:37;;;;;;;10.45;4.05;;;;;;;;;;6186542;23;20009;-84
2022/06/24 12:42:05;;;;;;;11.45;3.40;;;;;;;;;;6160214;23;20001;-89
2022/06/24 12:44:51;;;;;;;9.32;3.63;;;;;;;;;;6186605;23;20091;-85
2022/06/24 12:53:07;;;;;;;11.70;2.90;;;;;;;;;;6187735;23;20036;-94
2022/06/24 12:55:34;;;;;;;9.73;3.35;;;;;;;;;;6186552;23;20005;-86
